aviador You're here:

KOFP Decoded Metar

RICHMOND/HANOVER in VA, USA
Report Time2017-05-26 12:54:00
UTC Time2017-05-26 13:07:16
Flight Rules vfr VFR
Wind250° at 09 Gusting to 16 kt
W.Decomp.*RWY 34: 1.4 kt HW 8.9 kt LCW
W.Rank250° ranks 10
Current wind is above 250° avg. (6.9)
Visibility9999 m
Phenomena:N/A
Clouds:N/A
Expected CloudBase > 2,800 ft AGL from Temp-Dew spread
CeilingNone
Temp20°C (ISA +5)
Dew Point13°C (64% RH)
AAT17.7°C
QNH1009 hPa
Density Alt1,171 ft
Elevation203 ft
Report Wrong Elevation
Raw Report
KOFP 261254Z AUTO 25009G16KT 10SM CLR 20/13 A2979 RMK AO2 SLP084
T02000128=

Extra information for KOFP:More info

Metar Taf Metar & Taf Last 4 Metars F.Rules Stats Wind Profile Meteogram Temp Stats Airport Information Weather charts Add Link Nearby VenuesMetar ALERT Operation Metar Decoded Social comments

AIRNAV info for KOFP